Time;durP1;ratioP1;P1;durP2;ratioP2;P2;SDS_P1;SDS_P2;PMS_P1;PMS_P2;Temp;Humidity;BMP_temperature;BMP_pressure;BME280_temperature;BME280_humidity;BME280_pressure;Samples;Min_cycle;Max_cycle;Signal;HPM_P1;HPM_P2
2023/02/01 00:00:01;;;;;;;6.15;3.60;;;;;;;-9.31;53.89;99874.44;4754201;30;20047;-77
2023/02/01 00:02:27;;;;;;;5.95;3.65;;;;;;;-9.34;54.17;99864.06;4770057;30;20052;-79
2023/02/01 00:04:53;;;;;;;8.98;5.40;;;;;;;-9.32;54.12;99870.13;4754052;30;20051;-79
2023/02/01 00:07:19;;;;;;;8.95;3.83;;;;;;;-9.37;54.29;99875.22;4768632;30;20051;-77
2023/02/01 00:09:45;;;;;;;8.35;4.10;;;;;;;-9.43;54.27;99869.16;4754007;30;20090;-79
2023/02/01 00:12:11;;;;;;;8.20;3.60;;;;;;;-9.42;54.32;99876.06;4769135;30;20059;-78
2023/02/01 00:14:38;;;;;;;9.50;4.35;;;;;;;-9.45;54.61;99874.31;4768816;30;20051;-78
2023/02/01 00:17:07;;;;;;;3.95;2.67;;;;;;;-9.45;54.54;99871.72;4769976;30;20075;-78
2023/02/01 00:19:33;;;;;;;;;;;;;;;-9.50;54.46;99867.38;4754222;30;20107;-78
2023/02/01 00:21:59;;;;;;;5.32;3.28;;;;;;;-9.62;54.73;99863.81;4784542;29;19922;-79
2023/02/01 00:24:25;;;;;;;7.05;3.95;;;;;;;-9.70;54.95;99865.47;4769896;30;20051;-80
2023/02/01 00:26:51;;;;;;;8.32;4.10;;;;;;;-9.74;54.96;99855.94;4783604;30;20057;-77
2023/02/01 00:29:19;;;;;;;4.88;3.97;;;;;;;-9.76;55.23;99851.59;4768674;30;20070;-78
2023/02/01 00:31:50;;;;;;;9.45;4.07;;;;;;;-9.79;55.04;99867.94;4768577;30;20064;-79
2023/02/01 00:34:16;;;;;;;;;;;;;;;-9.84;55.39;99867.91;4753960;30;20055;-79
2023/02/01 00:36:43;;;;;;;6.55;4.10;;;;;;;-9.99;55.75;99856.53;4769180;30;19925;-79
2023/02/01 00:39:10;;;;;;;8.05;4.22;;;;;;;-9.93;55.32;99864.34;4753771;30;20043;-80
2023/02/01 00:41:36;;;;;;;10.82;4.85;;;;;;;-9.93;55.31;99872.97;4768426;30;20147;-79
2023/02/01 00:44:02;;;;;;;7.63;4.15;;;;;;;-9.96;55.41;99866.94;4768764;30;20062;-79
2023/02/01 00:46:29;;;;;;;6.50;3.70;;;;;;;-10.02;55.76;99866.00;4783410;30;20488;-80
2023/02/01 00:48:55;;;;;;;6.90;4.07;;;;;;;-10.05;55.69;99867.66;4753748;30;20049;-79
2023/02/01 00:51:24;;;;;;;9.32;4.55;;;;;;;-10.00;55.59;99873.78;4769559;30;20139;-78
2023/02/01 00:53:51;;;;;;;6.10;3.83;;;;;;;-10.02;55.52;99871.16;4785360;30;20087;-79
2023/02/01 00:56:17;;;;;;;6.75;3.97;;;;;;;-10.05;55.52;99862.50;4756648;30;20073;-80
2023/02/01 00:58:43;;;;;;;10.35;4.20;;;;;;;-10.06;55.42;99861.63;4773687;30;20095;-79
2023/02/01 01:01:16;;;;;;;10.38;4.35;;;;;;;-10.06;55.75;99871.97;4773169;30;20047;-79
2023/02/01 01:03:44;;;;;;;8.63;3.75;;;;;;;-10.12;55.81;99871.91;4771841;30;20113;-80
2023/02/01 01:06:14;;;;;;;8.02;4.20;;;;;;;-10.14;55.90;99881.38;4757057;30;20089;-79
2023/02/01 01:08:41;;;;;;;8.95;4.10;;;;;;;-10.24;55.92;99870.91;4787167;30;20071;-80
2023/02/01 01:11:19;;;;;;;7.40;3.80;;;;;;;-10.29;55.99;99864.00;4772168;30;20120;-79
2023/02/01 01:13:49;;;;;;;8.88;4.00;;;;;;;-10.25;55.76;99869.19;4771924;30;20048;-80
2023/02/01 01:16:16;;;;;;;8.43;4.43;;;;;;;-10.31;55.85;99860.50;4786400;30;20059;-79
2023/02/01 01:18:42;;;;;;;8.27;4.15;;;;;;;-10.34;55.95;99876.00;4772631;30;20103;-79
2023/02/01 01:21:09;;;;;;;7.97;4.38;;;;;;;-10.36;55.88;99876.81;4771611;30;20501;-79
2023/02/01 01:23:36;;;;;;;7.05;3.90;;;;;;;-10.36;56.05;99877.69;4756695;30;20051;-78
2023/02/01 01:26:08;;;;;;;7.80;4.15;;;;;;;-10.38;56.10;99870.75;4756778;30;20408;-79
2023/02/01 01:28:35;;;;;;;7.55;3.67;;;;;;;-10.37;56.46;99865.63;4757279;30;20055;-80
2023/02/01 01:31:01;;;;;;;6.47;3.95;;;;;;;-10.46;56.17;99859.47;4756652;30;20079;-79
2023/02/01 01:33:26;;;;;;;5.18;3.45;;;;;;;-10.34;56.13;99882.84;4786283;30;20056;-78
2023/02/01 01:35:52;;;;;;;8.57;4.22;;;;;;;-10.35;56.26;99891.47;4756801;30;20044;-79
2023/02/01 01:38:18;;;;;;;7.38;4.03;;;;;;;-10.36;56.05;99892.31;4771138;30;20055;-79
2023/02/01 01:40:49;;;;;;;6.63;3.85;;;;;;;-10.44;56.13;99894.81;4756411;30;20058;-79
2023/02/01 01:43:22;;;;;;;7.40;3.67;;;;;;;-10.44;56.30;99899.97;4756595;30;20044;-79
2023/02/01 01:45:50;;;;;;;6.10;4.28;;;;;;;-10.40;56.36;99887.97;4771278;30;20071;-78
2023/02/01 01:48:29;;;;;;;6.03;3.28;;;;;;;-10.38;56.37;99899.19;4756543;30;20044;-80
2023/02/01 01:51:01;;;;;;;5.50;3.70;;;;;;;-10.41;56.54;99891.41;4756176;30;20428;-80
2023/02/01 01:53:34;;;;;;;6.82;4.25;;;;;;;-10.39;56.50;99893.16;4756110;30;20056;-80
2023/02/01 01:56:00;;;;;;;7.90;4.00;;;;;;;-10.44;56.13;99893.94;4756529;30;20058;-79
2023/02/01 01:58:29;;;;;;;7.90;4.40;;;;;;;-10.39;56.21;99893.16;4770793;30;20093;-80
2023/02/01 02:00:55;;;;;;;6.05;3.67;;;;;;;-10.42;56.41;99892.22;4771047;30;20048;-79
2023/02/01 02:03:42;;;;;;;8.27;4.82;;;;;;;-10.40;56.27;99895.72;4755916;30;20068;-80
2023/02/01 02:06:21;;;;;;;7.75;4.85;;;;;;;-10.41;56.52;99888.81;4786090;30;20063;-80
2023/02/01 02:08:47;;;;;;;6.18;3.70;;;;;;;-10.36;56.26;99905.25;4777825;30;20151;-82
2023/02/01 02:11:16;;;;;;;9.05;4.35;;;;;;;-10.37;56.26;99904.38;4789787;30;20051;-81
2023/02/01 02:13:44;;;;;;;9.48;3.83;;;;;;;-10.36;55.89;99897.50;4788334;30;20047;-79
2023/02/01 02:16:30;;;;;;;8.73;5.35;;;;;;;-10.36;56.24;99897.50;4789598;29;20135;-79
2023/02/01 02:19:24;;;;;;;8.93;4.22;;;;;;;-10.41;56.33;99891.41;4773974;30;20054;-79
2023/02/01 02:22:27;;;;;;;7.80;3.90;;;;;;;-10.43;56.26;99895.69;4789556;29;20428;-79
2023/02/01 02:25:02;;;;;;;7.35;3.95;;;;;;;-10.44;56.21;99889.66;4774097;30;20519;-79
2023/02/01 02:28:02;;;;;;;12.43;4.20;;;;;;;-10.44;56.28;99897.41;4773466;30;20082;-80
2023/02/01 02:30:28;;;;;;;14.07;3.83;;;;;;;-10.49;56.36;99895.59;4773533;30;20145;-80
2023/02/01 02:33:03;;;;;;;8.52;4.15;;;;;;;-10.48;56.27;99897.34;4787806;30;20142;-79
2023/02/01 02:36:01;;;;;;;6.22;3.60;;;;;;;-10.42;56.14;99897.41;4758741;30;20051;-79
2023/02/01 02:38:40;;;;;;;6.38;3.85;;;;;;;-10.42;56.26;99897.41;4788110;30;20055;-78
2023/02/01 02:47:24;;;;;;;8.15;4.15;;;;;;;-10.46;56.27;99901.66;4787466;30;20051;-79
2023/02/01 03:04:17;;;;;;;7.78;3.75;;;;;;;-10.57;56.07;99904.13;4772675;30;20054;-79
2023/02/01 03:06:45;;;;;;;7.38;4.28;;;;;;;-10.57;56.07;99898.06;4772683;30;20039;-78
2023/02/01 03:09:34;;;;;;;7.25;3.78;;;;;;;-10.52;56.41;99899.00;4787648;30;20598;-79
2023/02/01 03:14:57;;;;;;;8.52;3.78;;;;;;;-10.50;56.16;99899.03;4772690;30;20057;-80
2023/02/01 03:17:35;;;;;;;6.90;3.90;;;;;;;-10.43;55.78;99895.69;4787730;30;20473;-79
2023/02/01 03:20:03;;;;;;;6.28;3.70;;;;;;;-10.45;55.68;99895.66;4787330;30;20420;-78
2023/02/01 03:22:31;;;;;;;8.00;3.90;;;;;;;-10.42;56.06;99892.22;4772450;30;20093;-79
2023/02/01 03:25:18;;;;;;;6.30;3.78;;;;;;;-10.36;55.82;99892.31;4787179;30;20145;-79
2023/02/01 03:28:00;;;;;;;6.85;3.78;;;;;;;-10.40;55.93;99896.59;4757820;29;20057;-79
2023/02/01 03:30:33;;;;;;;4.95;3.97;;;;;;;-10.31;55.67;99891.53;4801797;29;20096;-80
2023/02/01 03:33:02;;;;;;;6.50;3.30;;;;;;;-10.28;55.67;99881.22;4786763;30;20047;-79
2023/02/01 03:35:36;;;;;;;8.18;4.18;;;;;;;-10.21;55.67;99897.66;4786821;30;20142;-78
2023/02/01 03:38:30;;;;;;;9.82;4.00;;;;;;;-10.20;55.96;99886.44;4772362;30;20511;-79
2023/02/01 03:41:24;;;;;;;8.68;4.43;;;;;;;-10.12;55.40;99896.88;4787442;30;20096;-79
2023/02/01 03:43:53;;;;;;;7.53;3.72;;;;;;;-10.13;55.50;99880.50;4771803;30;20051;-78
2023/02/01 03:46:33;;;;;;;7.90;3.65;;;;;;;-10.14;55.44;99876.19;4787271;30;20047;-77
2023/02/01 03:49:06;;;;;;;10.80;4.75;;;;;;;-10.06;55.18;99892.66;4757096;30;20576;-76
2023/02/01 03:51:38;;;;;;;8.02;4.07;;;;;;;-10.00;55.21;99890.97;4801890;29;20051;-76
2023/02/01 03:54:09;;;;;;;6.57;3.92;;;;;;;-10.06;55.12;99892.66;4772086;30;20050;-80
2023/02/01 03:56:38;;;;;;;12.63;3.95;;;;;;;-10.03;55.19;99899.59;4786728;30;20055;-80
2023/02/01 03:59:04;;;;;;;9.63;4.18;;;;;;;-10.08;54.79;99896.97;4787356;30;20484;-80
2023/02/01 04:01:33;;;;;;;10.52;3.97;;;;;;;-10.06;54.65;99895.25;4786735;30;20150;-79
2023/02/01 04:04:00;;;;;;;8.10;4.32;;;;;;;-10.06;54.75;99903.00;4786884;29;20144;-78
2023/02/01 04:06:26;;;;;;;8.20;4.05;;;;;;;-10.07;54.48;99906.44;4801622;29;20496;-78
2023/02/01 04:08:54;;;;;;;7.67;4.20;;;;;;;-10.07;54.29;99909.03;4757256;30;20043;-79
2023/02/01 04:11:20;;;;;;;7.50;4.18;;;;;;;-10.04;54.55;99922.00;4802007;29;20047;-79
2023/02/01 04:13:46;;;;;;;7.38;3.92;;;;;;;-10.08;54.06;99927.09;4770671;30;20130;-77
2023/02/01 04:16:12;;;;;;;8.43;4.75;;;;;;;-10.17;54.09;99917.53;4786659;29;20047;-81
2023/02/01 04:18:38;;;;;;;9.48;4.57;;;;;;;-10.09;54.47;99926.22;4786604;30;20100;-80
2023/02/01 04:21:04;;;;;;;8.52;4.10;;;;;;;-10.05;54.13;99920.25;4801597;29;20112;-80
2023/02/01 04:23:31;;;;;;;7.25;3.90;;;;;;;-9.99;54.64;99914.28;4771071;30;20054;-78
2023/02/01 04:26:01;;;;;;;9.98;4.93;;;;;;;-9.97;54.46;99919.47;4787698;29;20503;-79
2023/02/01 04:28:28;;;;;;;10.85;4.45;;;;;;;-9.99;54.10;99924.63;4786946;29;20049;-79
2023/02/01 04:30:54;;;;;;;10.43;4.35;;;;;;;-9.96;54.49;99929.00;4788065;29;20055;-87
2023/02/01 04:33:20;;;;;;;10.15;5.00;;;;;;;-10.02;54.22;99915.13;4791112;30;20051;-81
2023/02/01 04:35:46;;;;;;;6.13;3.95;;;;;;;-10.08;54.19;99922.81;4791437;30;20138;-80
2023/02/01 04:38:11;;;;;;;9.32;4.50;;;;;;;-9.98;54.12;99930.66;4775774;30;20055;-79
2023/02/01 04:40:37;;;;;;;9.95;4.80;;;;;;;-9.88;54.39;99929.94;4775277;30;20054;-81
2023/02/01 04:43:04;;;;;;;10.25;5.00;;;;;;;-9.81;54.33;99942.09;4760216;30;20047;-82
2023/02/01 04:45:30;;;;;;;9.05;4.43;;;;;;;-9.77;54.18;99936.09;4789855;30;20043;-80
2023/02/01 04:47:56;;;;;;;12.98;5.38;;;;;;;-9.70;54.35;99937.91;4760181;30;20051;-81
2023/02/01 04:50:23;;;;;;;17.75;4.68;;;;;;;-9.71;53.68;99936.16;4789832;30;20039;-79
2023/02/01 04:52:50;;;;;;;14.32;6.57;;;;;;;-9.65;54.25;99936.22;4760375;30;20051;-84
2023/02/01 04:55:16;;;;;;;14.45;5.50;;;;;;;-9.37;55.63;99937.34;4789957;30;20058;-79
2023/02/01 04:57:42;;;;;;;17.58;7.40;;;;;;;-9.27;54.75;99942.66;4806667;29;20065;-80
2023/02/01 05:00:09;;;;;;;21.02;7.88;;;;;;;-9.22;54.13;99947.00;4791681;29;20059;-76
2023/02/01 05:02:35;;;;;;;19.30;5.45;;;;;;;-9.26;53.43;99944.38;4806444;29;20059;-77
2023/02/01 05:05:02;;;;;;;32.42;6.95;;;;;;;-9.31;53.52;99944.34;4806449;29;20059;-77
2023/02/01 05:07:28;;;;;;;9.63;5.03;;;;;;;-9.24;53.31;99945.25;4791271;29;20062;-79
2023/02/01 05:09:54;;;;;;;15.48;6.07;;;;;;;-9.08;53.34;99947.13;4776712;29;20055;-78
2023/02/01 05:15:05;;;;;;;15.27;6.25;;;;;;;-9.24;52.76;99946.13;4791268;29;20153;-78
2023/02/01 05:17:30;;;;;;;15.45;7.47;;;;;;;-9.20;53.47;99949.63;4791383;29;20142;-78
2023/02/01 05:19:56;;;;;;;15.30;8.23;;;;;;;-9.03;53.12;99952.34;4791846;29;20602;-79
2023/02/01 05:22:22;;;;;;;12.32;6.97;;;;;;;-8.90;53.28;99952.47;4791207;29;20058;-80
2023/02/01 05:24:48;;;;;;;11.88;6.05;;;;;;;-8.82;53.09;99955.13;4791170;29;20486;-79
2023/02/01 05:27:14;;;;;;;20.67;6.55;;;;;;;-8.81;52.64;99939.56;4806332;29;20095;-79
2023/02/01 05:29:40;;;;;;;30.95;5.05;;;;;;;-8.75;52.59;99948.25;4806124;29;20047;-80
2023/02/01 05:32:10;;;;;;;14.10;4.80;;;;;;;-8.74;52.52;99950.84;4790124;29;20059;-82
2023/02/01 05:34:36;;;;;;;13.57;6.15;;;;;;;-8.59;52.51;99950.09;4783309;30;20100;-81
2023/02/01 05:37:02;;;;;;;16.10;5.43;;;;;;;-8.70;52.28;99947.44;4784268;30;20516;-80
2023/02/01 05:39:28;;;;;;;10.07;5.43;;;;;;;-8.54;52.50;99942.34;4784157;30;20054;-79
2023/02/01 05:41:54;;;;;;;13.57;6.75;;;;;;;-8.41;52.32;99938.97;4783621;29;20143;-79
2023/02/01 05:44:19;;;;;;;9.00;6.07;;;;;;;-8.28;52.11;99955.44;4769074;30;20051;-79
2023/02/01 05:46:45;;;;;;;15.48;7.30;;;;;;;-8.20;51.82;99951.16;4783973;30;20130;-81
2023/02/01 05:49:11;;;;;;;17.45;8.07;;;;;;;-8.10;51.92;99946.03;4783840;30;20056;-78
2023/02/01 05:51:37;;;;;;;14.02;7.45;;;;;;;-8.03;51.84;99961.63;4785342;30;20048;-80
2023/02/01 05:54:02;;;;;;;17.05;7.70;;;;;;;-7.99;51.62;99955.59;4771833;30;20378;-79
2023/02/01 05:56:28;;;;;;;19.60;7.15;;;;;;;-7.91;51.54;99962.53;4795685;29;20047;-81
2023/02/01 05:58:54;;;;;;;15.13;7.40;;;;;;;-7.87;51.16;99959.09;4790176;29;20047;-81
2023/02/01 06:01:20;;;;;;;9.30;5.38;;;;;;;-7.87;50.82;99953.03;4790136;30;20411;-80
2023/02/01 06:03:45;;;;;;;14.32;7.18;;;;;;;-7.75;50.93;99953.09;4744657;30;20097;-81
2023/02/01 06:06:11;;;;;;;10.00;5.53;;;;;;;-7.84;49.82;99947.88;4758803;30;20054;-81
2023/02/01 06:08:40;;;;;;;13.18;6.10;;;;;;;-7.88;50.68;99951.31;4788375;30;20043;-80
2023/02/01 06:11:06;;;;;;;12.90;6.40;;;;;;;-7.80;50.78;99949.63;4789743;29;20055;-80
2023/02/01 06:13:32;;;;;;;10.15;5.78;;;;;;;-7.75;50.43;99937.50;4787339;30;20043;-80
2023/02/01 06:15:58;;;;;;;9.52;5.20;;;;;;;-7.66;49.59;99947.94;4788028;30;20047;-78
2023/02/01 06:18:25;;;;;;;13.10;5.38;;;;;;;-7.64;50.06;99950.53;4788049;30;20116;-79
2023/02/01 06:21:02;;;;;;;10.73;4.85;;;;;;;-7.59;50.05;99944.50;4789446;30;20058;-79
2023/02/01 06:23:29;;;;;;;11.15;4.97;;;;;;;-7.36;50.15;99952.34;4789631;30;20376;-81
2023/02/01 06:26:13;;;;;;;7.97;4.75;;;;;;;-7.40;49.70;99954.94;4773194;30;20423;-80
2023/02/01 06:28:39;;;;;;;9.63;5.03;;;;;;;-7.46;49.87;99955.78;4758466;30;20103;-80
2023/02/01 06:31:06;;;;;;;11.43;5.63;;;;;;;-7.28;49.74;99954.94;4784946;30;20545;-78
2023/02/01 06:33:33;;;;;;;12.48;5.72;;;;;;;-7.18;49.58;99950.66;4755216;30;20047;-80
2023/02/01 06:36:01;;;;;;;9.70;5.28;;;;;;;-7.01;49.15;99958.44;4784849;30;20060;-81
2023/02/01 06:38:27;;;;;;;12.52;5.80;;;;;;;-6.95;49.09;99955.88;4771010;30;20101;-81
2023/02/01 06:41:03;;;;;;;18.58;5.43;;;;;;;-6.97;48.93;99955.84;4770913;30;20048;-80
2023/02/01 06:43:29;;;;;;;9.07;4.43;;;;;;;-6.92;48.75;99953.25;4771306;30;20054;-80
2023/02/01 06:46:01;;;;;;;8.80;4.35;;;;;;;-6.90;48.67;99961.91;4771021;30;20113;-79
2023/02/01 06:48:27;;;;;;;6.63;4.07;;;;;;;-6.94;48.58;99961.06;4755255;30;20186;-79
2023/02/01 06:50:52;;;;;;;6.15;4.20;;;;;;;-6.80;48.59;99958.47;4785239;30;20086;-81
2023/02/01 06:53:18;;;;;;;6.82;4.13;;;;;;;-6.64;48.14;99960.19;4784271;29;20047;-82
2023/02/01 06:55:55;;;;;;;6.65;4.15;;;;;;;-6.56;47.67;99951.50;4781372;30;20043;-80
2023/02/01 06:58:21;;;;;;;10.55;4.65;;;;;;;-6.53;47.76;99948.91;4772944;30;20086;-79
2023/02/01 07:00:47;;;;;;;11.32;4.82;;;;;;;-6.50;47.50;99954.13;4790817;29;20047;-78
2023/02/01 07:03:12;;;;;;;10.27;5.47;;;;;;;-6.39;47.47;99947.16;4757694;30;20153;-78
2023/02/01 07:05:38;;;;;;;12.93;5.93;;;;;;;-6.40;46.80;99950.59;4757859;30;20569;-81
2023/02/01 07:08:04;;;;;;;13.95;6.65;;;;;;;-6.45;47.35;99949.75;4788598;29;20071;-79
2023/02/01 07:10:30;;;;;;;11.02;5.65;;;;;;;-6.39;47.40;99952.38;4772426;30;20047;-79
2023/02/01 07:12:57;;;;;;;14.63;6.70;;;;;;;-6.15;47.21;99949.69;4787317;30;20059;-83
2023/02/01 07:15:23;;;;;;;10.77;5.90;;;;;;;-6.00;47.02;99937.50;4788160;29;20047;-80
2023/02/01 07:17:49;;;;;;;10.55;5.65;;;;;;;-5.96;48.99;99939.22;4784423;30;20048;-79
2023/02/01 07:20:16;;;;;;;8.50;4.95;;;;;;;-5.89;46.84;99949.56;4772840;29;20087;-80
2023/02/01 07:22:42;;;;;;;7.60;4.50;;;;;;;-5.91;45.97;99947.84;4801882;29;20058;-79
2023/02/01 07:25:08;;;;;;;7.57;4.65;;;;;;;-5.85;45.76;99947.81;4757453;30;20047;-79
2023/02/01 07:27:35;;;;;;;11.93;4.93;;;;;;;-5.80;45.83;99945.19;4787188;30;20051;-77
2023/02/01 07:30:02;;;;;;;8.25;4.18;;;;;;;-5.72;44.99;99944.28;4787077;29;20633;-80
2023/02/01 07:32:29;;;;;;;8.93;4.35;;;;;;;-5.58;45.36;99951.19;4772072;30;20058;-80
2023/02/01 07:34:56;;;;;;;7.20;4.32;;;;;;;-5.56;44.88;99947.69;4771995;30;20058;-79
2023/02/01 07:37:23;;;;;;;8.50;4.72;;;;;;;-5.47;44.53;99938.97;4788525;29;20069;-82
2023/02/01 07:39:52;;;;;;;14.35;5.15;;;;;;;-5.33;45.07;99938.88;4787433;30;20051;-80
2023/02/01 07:42:18;;;;;;;10.38;5.50;;;;;;;-5.31;44.73;99934.53;4787129;30;20586;-82
2023/02/01 07:44:44;;;;;;;6.80;4.55;;;;;;;-5.09;44.26;99941.31;4786838;30;20058;-80
2023/02/01 07:47:10;;;;;;;9.07;4.90;;;;;;;-5.10;44.25;99943.94;4787568;30;20051;-81
2023/02/01 07:49:36;;;;;;;13.52;5.13;;;;;;;-4.93;43.93;99927.31;4786820;30;20481;-77
2023/02/01 07:52:02;;;;;;;16.00;5.90;;;;;;;-5.08;43.45;99937.81;4801211;29;20047;-81
2023/02/01 07:54:27;;;;;;;9.45;5.90;;;;;;;-4.79;44.01;99936.75;4787974;30;20057;-78
2023/02/01 07:56:53;;;;;;;8.85;5.32;;;;;;;-4.57;43.55;99932.22;4786505;30;20066;-81
2023/02/01 07:59:19;;;;;;;8.75;5.75;;;;;;;-4.45;43.18;99939.91;4783950;30;20047;-83
2023/02/01 08:01:45;;;;;;;12.23;6.35;;;;;;;-4.43;42.71;99931.19;4771355;30;20052;-83
2023/02/01 08:04:12;;;;;;;22.33;5.65;;;;;;;-4.47;42.67;99926.03;4768906;30;20048;-81
2023/02/01 08:06:39;;;;;;;12.98;5.40;;;;;;;-4.43;43.33;99918.16;4783768;30;20492;-82
2023/02/01 08:09:07;;;;;;;12.60;6.53;;;;;;;-4.16;42.83;99927.44;4783778;30;20294;-81
2023/02/01 08:11:36;;;;;;;10.75;5.70;;;;;;;-3.98;42.62;99930.72;4783803;30;20048;-79
2023/02/01 08:14:02;;;;;;;9.40;5.40;;;;;;;-3.90;42.06;99934.13;4780755;30;20051;-83
2023/02/01 08:16:28;;;;;;;13.43;4.78;;;;;;;-3.75;42.11;99933.91;4786750;30;20423;-82
2023/02/01 08:18:54;;;;;;;9.02;4.32;;;;;;;-3.68;41.64;99925.13;4786968;30;20104;-82
2023/02/01 08:21:26;;;;;;;7.45;4.22;;;;;;;-3.60;41.80;99930.25;4786615;30;20138;-83
2023/02/01 08:23:52;;;;;;;11.88;4.75;;;;;;;-3.47;41.38;99930.94;4772406;30;20428;-81
2023/02/01 08:26:22;;;;;;;7.97;4.38;;;;;;;-3.44;41.37;99923.06;4786673;30;20051;-83
2023/02/01 08:28:51;;;;;;;8.57;4.43;;;;;;;-3.37;41.02;99929.06;4787981;29;20051;-82
2023/02/01 08:31:21;;;;;;;8.55;4.88;;;;;;;-3.35;40.39;99920.31;4788013;29;20411;-81
2023/02/01 08:33:52;;;;;;;10.73;5.70;;;;;;;-3.40;40.27;99919.50;4772274;30;20131;-82
2023/02/01 08:36:19;;;;;;;11.93;5.32;;;;;;;-3.43;40.55;99914.31;4786623;30;20051;-82
2023/02/01 08:38:45;;;;;;;12.75;6.70;;;;;;;-3.25;40.94;99919.28;4771507;30;20099;-81
2023/02/01 08:41:14;;;;;;;8.00;5.18;;;;;;;-3.01;40.90;99919.78;4801374;29;20500;-78
2023/02/01 08:43:40;;;;;;;19.30;7.50;;;;;;;-2.89;40.57;99924.00;4756274;30;20079;-80
2023/02/01 08:46:09;;;;;;;13.98;6.75;;;;;;;-2.88;40.17;99903.03;4786067;30;20146;-82
2023/02/01 08:48:35;;;;;;;17.15;7.47;;;;;;;-2.85;39.45;99913.44;4787062;30;20074;-82
2023/02/01 08:51:09;;;;;;;8.23;4.90;;;;;;;-2.77;40.52;99905.47;4786770;30;20052;-81
2023/02/01 08:53:36;;;;;;;10.43;5.18;;;;;;;-2.54;40.14;99912.94;4786584;30;20047;-84
2023/02/01 08:56:03;;;;;;;15.27;7.60;;;;;;;-2.35;40.23;99908.22;4771550;30;20051;-84
2023/02/01 08:58:29;;;;;;;13.45;7.70;;;;;;;-2.17;39.78;99901.78;4801544;29;20047;-80
2023/02/01 09:00:55;;;;;;;7.75;4.40;;;;;;;-2.12;39.49;99902.53;4801269;29;20047;-81
2023/02/01 09:03:21;;;;;;;10.10;5.75;;;;;;;-2.10;39.45;99890.28;4785903;30;20396;-80
2023/02/01 09:05:47;;;;;;;11.40;6.40;;;;;;;-1.97;39.08;99891.75;4786883;30;20059;-78
2023/02/01 09:08:14;;;;;;;17.55;8.05;;;;;;;-1.92;39.13;99897.75;4785714;30;20392;-80
2023/02/01 09:10:41;;;;;;;11.60;7.72;;;;;;;-1.90;38.75;99890.75;4801344;29;20043;-81
2023/02/01 09:13:08;;;;;;;19.75;7.95;;;;;;;-1.99;38.63;99880.47;4771540;30;20429;-83
2023/02/01 09:15:34;;;;;;;16.48;7.03;;;;;;;-2.06;38.78;99881.47;4801176;29;20055;-82
2023/02/01 09:18:00;;;;;;;10.57;5.60;;;;;;;-2.12;38.80;99878.97;4788794;29;20101;-82
2023/02/01 09:20:26;;;;;;;12.10;5.63;;;;;;;-2.05;38.55;99886.66;4789744;30;20566;-79
2023/02/01 09:22:54;;;;;;;12.80;6.85;;;;;;;-2.02;38.54;99875.28;4789693;30;20054;-81
2023/02/01 09:25:20;;;;;;;13.48;6.50;;;;;;;-2.08;38.77;99875.38;4790988;29;20075;-81
2023/02/01 09:27:46;;;;;;;16.30;8.48;;;;;;;-2.08;38.86;99870.16;4804307;29;20059;-82
2023/02/01 09:30:12;;;;;;;16.13;8.40;;;;;;;-2.09;38.65;99873.69;4759856;30;20499;-80
2023/02/01 09:32:38;;;;;;;17.77;10.18;;;;;;;-1.99;38.89;99869.97;4789972;30;20162;-84
2023/02/01 09:35:04;;;;;;;16.27;9.13;;;;;;;-1.96;39.01;99867.28;4775800;30;20130;-79
2023/02/01 09:37:30;;;;;;;23.73;9.77;;;;;;;-1.96;39.26;99873.41;4804716;29;20050;-82
2023/02/01 09:39:56;;;;;;;24.48;10.68;;;;;;;-2.13;39.42;99872.00;4759412;30;20059;-80
2023/02/01 09:42:56;;;;;;;16.17;8.48;;;;;;;-2.00;39.95;99868.22;4789010;30;20550;-80
2023/02/01 09:45:27;;;;;;;19.85;9.73;;;;;;;-1.91;39.53;99862.81;4774132;30;20048;-82
2023/02/01 09:47:56;;;;;;;25.38;8.43;;;;;;;-2.01;39.29;99866.53;4789395;30;20082;-81
2023/02/01 09:50:35;;;;;;;29.08;6.95;;;;;;;-1.83;38.61;99860.91;4788861;30;20145;-82
2023/02/01 09:53:28;;;;;;;13.50;7.47;;;;;;;-1.81;38.60;99853.84;4759722;30;20424;-80
2023/02/01 09:56:00;;;;;;;15.07;8.43;;;;;;;-1.73;38.68;99846.72;4774172;30;20059;-81
2023/02/01 09:58:32;;;;;;;12.05;6.93;;;;;;;-1.68;39.09;99856.22;4790053;29;20143;-79
2023/02/01 10:01:01;;;;;;;14.85;7.75;;;;;;;-1.70;39.18;99835.28;4788519;30;20055;-80
2023/02/01 10:03:30;;;;;;;18.48;8.48;;;;;;;-1.62;38.48;99838.56;4788364;30;20112;-81
2023/02/01 10:06:20;;;;;;;14.02;8.18;;;;;;;-1.62;39.27;99840.34;4788609;30;20497;-81
2023/02/01 10:09:11;;;;;;;17.25;8.52;;;;;;;-1.53;39.19;99832.28;4803817;29;20047;-81
2023/02/01 10:11:49;;;;;;;16.33;8.65;;;;;;;-1.41;39.63;99836.38;4789205;30;20520;-83
2023/02/01 10:14:27;;;;;;;13.52;7.88;;;;;;;-1.29;39.40;99836.09;4774944;30;20051;-88
2023/02/01 10:17:14;;;;;;;13.25;6.45;;;;;;;-0.96;39.36;99850.16;4760764;30;20081;-84
2023/02/01 10:19:43;;;;;;;17.02;7.80;;;;;;;-0.83;39.16;99841.06;4774674;30;20055;-82
2023/02/01 10:22:11;;;;;;;20.20;8.30;;;;;;;-0.73;39.04;99855.66;4788919;30;20496;-77
2023/02/01 10:25:15;;;;;;;21.20;9.80;;;;;;;-0.56;38.83;99857.00;4773692;30;20368;-80
2023/02/01 10:27:43;;;;;;;18.85;9.48;;;;;;;-0.60;38.63;99853.59;4743122;29;20432;-81
2023/02/01 10:30:12;;;;;;;18.95;9.88;;;;;;;-0.89;38.51;99853.47;4772021;30;20094;-79
2023/02/01 10:32:40;;;;;;;25.08;10.15;;;;;;;-1.12;38.38;99849.66;4787702;30;20047;-82
2023/02/01 10:35:21;;;;;;;16.93;8.90;;;;;;;-1.02;39.24;99842.41;4787082;30;20059;-83
2023/02/01 10:37:47;;;;;;;23.08;10.18;;;;;;;-0.86;38.96;99850.78;4788007;30;20047;-81
2023/02/01 10:40:21;;;;;;;19.42;9.82;;;;;;;-0.71;38.25;99834.63;4802815;29;20047;-86
2023/02/01 10:42:50;;;;;;;17.33;9.63;;;;;;;-0.57;37.45;99842.13;4787516;30;20146;-81
2023/02/01 10:45:20;;;;;;;17.35;9.18;;;;;;;-0.52;36.83;99841.13;4789242;29;20086;-80
2023/02/01 10:47:49;;;;;;;16.95;9.43;;;;;;;-0.40;36.66;99852.19;4802211;29;20052;-81
2023/02/01 10:50:34;;;;;;;19.63;11.88;;;;;;;-0.36;36.72;99851.22;4786992;30;20047;-80
2023/02/01 10:53:23;;;;;;;21.13;12.77;;;;;;;-0.43;37.17;99845.25;4787900;30;20188;-80
2023/02/01 10:55:51;;;;;;;29.50;12.40;;;;;;;-0.49;37.22;99848.03;4754482;30;20074;-80
2023/02/01 10:58:31;;;;;;;25.25;12.98;;;;;;;-0.61;37.61;99848.38;4802472;29;20062;-81
2023/02/01 11:01:06;;;;;;;25.63;13.63;;;;;;;-0.93;37.39;99855.31;4787086;30;20105;-81
2023/02/01 11:03:40;;;;;;;36.88;19.98;;;;;;;-0.98;38.04;99857.19;4757338;30;20055;-80
2023/02/01 11:06:09;;;;;;;38.67;16.58;;;;;;;-0.84;36.98;99865.56;4787197;30;20051;-79
2023/02/01 11:08:45;;;;;;;30.23;12.30;;;;;;;-1.26;36.74;99854.38;4788247;30;20445;-80
2023/02/01 11:11:11;;;;;;;24.83;11.25;;;;;;;-1.48;37.16;99846.16;4802490;29;20047;-83
2023/02/01 11:13:39;;;;;;;20.98;9.85;;;;;;;-1.78;37.90;99853.78;4802599;29;20043;-79
2023/02/01 11:16:05;;;;;;;23.52;8.73;;;;;;;-2.14;38.04;99854.56;4788131;30;20096;-81
2023/02/01 11:18:36;;;;;;;17.80;9.05;;;;;;;-2.61;39.09;99853.72;4788820;29;20047;-84
2023/02/01 11:21:03;;;;;;;21.25;9.38;;;;;;;-2.87;39.21;99852.44;4788068;29;20086;-83
2023/02/01 11:23:33;;;;;;;16.08;7.30;;;;;;;-3.01;39.39;99854.41;4787224;30;20051;-83
2023/02/01 11:26:00;;;;;;;;;;;;;;;-3.02;39.34;99853.56;4802171;29;20055;-81
2023/02/01 11:28:30;;;;;;;13.60;5.43;;;;;;;-2.79;38.99;99860.16;4802300;29;19925;-85
2023/02/01 11:31:07;;;;;;;11.73;5.30;;;;;;;-2.81;39.10;99857.56;4801706;29;20541;-84
2023/02/01 11:33:42;;;;;;;15.43;5.50;;;;;;;-2.40;39.37;99849.84;4784944;30;20397;-79
2023/02/01 11:36:26;;;;;;;5.80;4.00;;;;;;;-2.34;38.50;99837.47;4785373;30;20051;-85
2023/02/01 11:39:20;;;;;;;9.40;4.35;;;;;;;-2.19;37.98;99852.03;4786437;29;20079;-84
2023/02/01 11:42:25;;;;;;;8.20;4.80;;;;;;;-1.83;38.23;99845.19;4798744;29;20055;-81
2023/02/01 11:45:24;;;;;;;8.15;4.15;;;;;;;-1.68;37.87;99848.38;4785229;30;20426;-84
2023/02/01 11:48:00;;;;;;;7.57;4.35;;;;;;;-1.78;37.19;99840.69;4787457;30;20415;-82
2023/02/01 11:50:57;;;;;;;9.93;4.10;;;;;;;-1.78;37.65;99869.50;4786611;29;20051;-83
2023/02/01 11:53:43;;;;;;;9.18;4.45;;;;;;;-1.61;37.03;99870.94;4800437;29;20084;-83
2023/02/01 11:56:22;;;;;;;15.30;5.97;;;;;;;-1.43;37.20;99859.13;4785718;30;20047;-84
2023/02/01 11:58:48;;;;;;;11.68;4.53;;;;;;;-1.37;36.72;99853.75;4786809;29;20511;-85
2023/02/01 12:01:32;;;;;;;11.63;4.78;;;;;;;-1.65;36.52;99856.16;4786582;30;20142;-84
2023/02/01 12:04:37;;;;;;;9.38;5.32;;;;;;;-1.87;37.01;99835.66;4787043;29;20212;-84
2023/02/01 12:07:42;;;;;;;11.30;5.28;;;;;;;-1.83;37.41;99854.81;4787095;29;20055;-84